sensor_id;sensor_type;location;lat;lon;timestamp;P1;durP1;ratioP1;P2;durP2;ratioP2
12947;SDS011;6539;49.476;8.484;2023-06-10T00:01:53;6.20;;;5.60;;
12947;SDS011;6539;49.476;8.484;2023-06-10T00:04:23;5.70;;;5.03;;
12947;SDS011;6539;49.476;8.484;2023-06-10T00:06:51;6.67;;;5.30;;
12947;SDS011;6539;49.476;8.484;2023-06-10T00:09:18;5.82;;;5.22;;
12947;SDS011;6539;49.476;8.484;2023-06-10T00:11:46;6.43;;;5.17;;
12947;SDS011;6539;49.476;8.484;2023-06-10T00:14:15;6.50;;;5.40;;
12947;SDS011;6539;49.476;8.484;2023-06-10T00:16:43;5.87;;;4.70;;
12947;SDS011;6539;49.476;8.484;2023-06-10T00:19:09;6.10;;;5.50;;
12947;SDS011;6539;49.476;8.484;2023-06-10T00:21:41;8.47;;;5.00;;
12947;SDS011;6539;49.476;8.484;2023-06-10T00:24:11;5.55;;;5.05;;
12947;SDS011;6539;49.476;8.484;2023-06-10T00:26:38;6.97;;;5.03;;
12947;SDS011;6539;49.476;8.484;2023-06-10T00:29:07;5.37;;;4.53;;
12947;SDS011;6539;49.476;8.484;2023-06-10T00:31:36;7.23;;;5.07;;
12947;SDS011;6539;49.476;8.484;2023-06-10T00:34:05;5.77;;;5.13;;
12947;SDS011;6539;49.476;8.484;2023-06-10T00:36:33;5.63;;;5.13;;
12947;SDS011;6539;49.476;8.484;2023-06-10T00:39:01;5.30;;;4.80;;
12947;SDS011;6539;49.476;8.484;2023-06-10T00:41:29;5.87;;;5.20;;
12947;SDS011;6539;49.476;8.484;2023-06-10T00:43:59;5.97;;;5.30;;
12947;SDS011;6539;49.476;8.484;2023-06-10T00:46:27;6.88;;;5.20;;
12947;SDS011;6539;49.476;8.484;2023-06-10T00:48:53;7.40;;;5.30;;
12947;SDS011;6539;49.476;8.484;2023-06-10T00:51:22;5.57;;;5.07;;
12947;SDS011;6539;49.476;8.484;2023-06-10T00:53:51;5.77;;;5.27;;
12947;SDS011;6539;49.476;8.484;2023-06-10T00:56:20;6.20;;;5.70;;
12947;SDS011;6539;49.476;8.484;2023-06-10T00:58:47;6.27;;;5.60;;
12947;SDS011;6539;49.476;8.484;2023-06-10T01:01:13;6.53;;;5.80;;
12947;SDS011;6539;49.476;8.484;2023-06-10T01:03:39;6.30;;;5.70;;
12947;SDS011;6539;49.476;8.484;2023-06-10T01:06:17;6.83;;;5.27;;
12947;SDS011;6539;49.476;8.484;2023-06-10T01:09:32;6.50;;;5.77;;
12947;SDS011;6539;49.476;8.484;2023-06-10T01:11:45;7.83;;;5.87;;
12947;SDS011;6539;49.476;8.484;2023-06-10T01:14:17;7.37;;;5.87;;
12947;SDS011;6539;49.476;8.484;2023-06-10T01:16:43;6.53;;;5.93;;
12947;SDS011;6539;49.476;8.484;2023-06-10T01:19:11;6.77;;;5.73;;
12947;SDS011;6539;49.476;8.484;2023-06-10T01:21:40;5.93;;;5.40;;
12947;SDS011;6539;49.476;8.484;2023-06-10T01:24:08;6.57;;;5.87;;
12947;SDS011;6539;49.476;8.484;2023-06-10T01:26:35;7.07;;;6.13;;
12947;SDS011;6539;49.476;8.484;2023-06-10T01:29:14;6.10;;;5.40;;
12947;SDS011;6539;49.476;8.484;2023-06-10T01:34:29;6.03;;;5.20;;
12947;SDS011;6539;49.476;8.484;2023-06-10T01:36:58;6.23;;;5.60;;
12947;SDS011;6539;49.476;8.484;2023-06-10T01:39:26;6.03;;;5.43;;
12947;SDS011;6539;49.476;8.484;2023-06-10T01:41:56;6.27;;;5.30;;
12947;SDS011;6539;49.476;8.484;2023-06-10T01:44:27;8.27;;;5.37;;
12947;SDS011;6539;49.476;8.484;2023-06-10T01:46:53;6.20;;;4.97;;
12947;SDS011;6539;49.476;8.484;2023-06-10T01:49:21;6.13;;;5.50;;
12947;SDS011;6539;49.476;8.484;2023-06-10T01:51:49;6.30;;;5.70;;
12947;SDS011;6539;49.476;8.484;2023-06-10T01:54:14;5.70;;;5.20;;
12947;SDS011;6539;49.476;8.484;2023-06-10T01:56:40;5.97;;;5.37;;
12947;SDS011;6539;49.476;8.484;2023-06-10T01:59:08;6.93;;;5.90;;
12947;SDS011;6539;49.476;8.484;2023-06-10T02:01:34;6.53;;;5.53;;
12947;SDS011;6539;49.476;8.484;2023-06-10T02:03:59;6.13;;;4.93;;
12947;SDS011;6539;49.476;8.484;2023-06-10T02:06:27;5.80;;;5.30;;
12947;SDS011;6539;49.476;8.484;2023-06-10T02:08:53;7.77;;;5.67;;
12947;SDS011;6539;49.476;8.484;2023-06-10T02:11:19;6.60;;;6.00;;
12947;SDS011;6539;49.476;8.484;2023-06-10T02:13:44;6.23;;;5.63;;
12947;SDS011;6539;49.476;8.484;2023-06-10T02:16:17;6.53;;;5.60;;
12947;SDS011;6539;49.476;8.484;2023-06-10T02:18:46;7.33;;;5.70;;
12947;SDS011;6539;49.476;8.484;2023-06-10T02:21:13;7.63;;;5.80;;
12947;SDS011;6539;49.476;8.484;2023-06-10T02:23:41;6.47;;;5.83;;
12947;SDS011;6539;49.476;8.484;2023-06-10T02:26:10;6.20;;;5.60;;
12947;SDS011;6539;49.476;8.484;2023-06-10T02:28:35;6.80;;;5.80;;
12947;SDS011;6539;49.476;8.484;2023-06-10T02:31:01;7.07;;;6.00;;
12947;SDS011;6539;49.476;8.484;2023-06-10T02:33:27;6.37;;;5.77;;
12947;SDS011;6539;49.476;8.484;2023-06-10T02:35:53;8.40;;;5.47;;
12947;SDS011;6539;49.476;8.484;2023-06-10T02:38:20;6.63;;;5.57;;
12947;SDS011;6539;49.476;8.484;2023-06-10T02:40:46;6.10;;;5.60;;
12947;SDS011;6539;49.476;8.484;2023-06-10T02:43:11;6.67;;;6.03;;
12947;SDS011;6539;49.476;8.484;2023-06-10T02:45:37;6.37;;;5.77;;
12947;SDS011;6539;49.476;8.484;2023-06-10T02:48:03;6.70;;;5.77;;
12947;SDS011;6539;49.476;8.484;2023-06-10T02:50:29;5.93;;;5.33;;
12947;SDS011;6539;49.476;8.484;2023-06-10T02:52:57;6.73;;;6.03;;
12947;SDS011;6539;49.476;8.484;2023-06-10T02:55:23;6.73;;;6.13;;
12947;SDS011;6539;49.476;8.484;2023-06-10T02:57:51;6.43;;;5.80;;
12947;SDS011;6539;49.476;8.484;2023-06-10T03:00:19;5.50;;;5.10;;
12947;SDS011;6539;49.476;8.484;2023-06-10T03:02:50;7.07;;;6.10;;
12947;SDS011;6539;49.476;8.484;2023-06-10T03:05:16;7.30;;;5.87;;
12947;SDS011;6539;49.476;8.484;2023-06-10T03:07:44;6.47;;;5.87;;
12947;SDS011;6539;49.476;8.484;2023-06-10T03:10:12;6.20;;;5.60;;
12947;SDS011;6539;49.476;8.484;2023-06-10T03:12:40;7.03;;;6.33;;
12947;SDS011;6539;49.476;8.484;2023-06-10T03:15:06;7.03;;;6.33;;
12947;SDS011;6539;49.476;8.484;2023-06-10T03:17:34;7.70;;;6.97;;
12947;SDS011;6539;49.476;8.484;2023-06-10T03:20:05;7.40;;;6.57;;
12947;SDS011;6539;49.476;8.484;2023-06-10T03:22:34;8.70;;;7.17;;
12947;SDS011;6539;49.476;8.484;2023-06-10T03:25:00;7.60;;;6.83;;
12947;SDS011;6539;49.476;8.484;2023-06-10T03:27:25;8.00;;;7.20;;
12947;SDS011;6539;49.476;8.484;2023-06-10T03:29:55;10.77;;;7.37;;
12947;SDS011;6539;49.476;8.484;2023-06-10T03:32:28;8.27;;;7.47;;
12947;SDS011;6539;49.476;8.484;2023-06-10T03:34:54;8.00;;;7.20;;
12947;SDS011;6539;49.476;8.484;2023-06-10T03:37:22;9.37;;;7.60;;
12947;SDS011;6539;49.476;8.484;2023-06-10T03:39:50;10.80;;;8.30;;
12947;SDS011;6539;49.476;8.484;2023-06-10T03:42:16;8.77;;;7.87;;
12947;SDS011;6539;49.476;8.484;2023-06-10T03:44:42;9.93;;;8.30;;
12947;SDS011;6539;49.476;8.484;2023-06-10T03:47:07;9.43;;;8.50;;
12947;SDS011;6539;49.476;8.484;2023-06-10T03:49:33;10.23;;;7.90;;
12947;SDS011;6539;49.476;8.484;2023-06-10T03:52:01;9.30;;;8.13;;
12947;SDS011;6539;49.476;8.484;2023-06-10T03:54:27;10.00;;;9.10;;
12947;SDS011;6539;49.476;8.484;2023-06-10T03:56:53;9.10;;;8.20;;
12947;SDS011;6539;49.476;8.484;2023-06-10T03:59:21;8.90;;;8.00;;
12947;SDS011;6539;49.476;8.484;2023-06-10T04:01:47;9.80;;;8.67;;
12947;SDS011;6539;49.476;8.484;2023-06-10T04:04:16;11.73;;;8.63;;
12947;SDS011;6539;49.476;8.484;2023-06-10T04:06:42;9.93;;;8.73;;
12947;SDS011;6539;49.476;8.484;2023-06-10T04:09:10;10.10;;;9.00;;
12947;SDS011;6539;49.476;8.484;2023-06-10T04:11:42;11.47;;;9.17;;
12947;SDS011;6539;49.476;8.484;2023-06-10T04:14:08;13.47;;;9.03;;
12947;SDS011;6539;49.476;8.484;2023-06-10T04:16:34;11.07;;;8.43;;
12947;SDS011;6539;49.476;8.484;2023-06-10T04:19:00;10.93;;;8.87;;
12947;SDS011;6539;49.476;8.484;2023-06-10T04:21:26;11.60;;;8.97;;
12947;SDS011;6539;49.476;8.484;2023-06-10T04:23:57;11.10;;;9.20;;
12947;SDS011;6539;49.476;8.484;2023-06-10T04:26:27;9.17;;;8.23;;
12947;SDS011;6539;49.476;8.484;2023-06-10T04:28:53;9.83;;;8.83;;
12947;SDS011;6539;49.476;8.484;2023-06-10T04:31:19;10.67;;;8.57;;
12947;SDS011;6539;49.476;8.484;2023-06-10T04:33:47;9.53;;;8.63;;
12947;SDS011;6539;49.476;8.484;2023-06-10T04:36:17;9.63;;;8.40;;
12947;SDS011;6539;49.476;8.484;2023-06-10T04:38:48;9.80;;;8.80;;
12947;SDS011;6539;49.476;8.484;2023-06-10T04:41:17;9.27;;;8.37;;
12947;SDS011;6539;49.476;8.484;2023-06-10T04:43:45;8.73;;;7.83;;
12947;SDS011;6539;49.476;8.484;2023-06-10T04:46:17;9.30;;;8.33;;
12947;SDS011;6539;49.476;8.484;2023-06-10T04:48:45;8.90;;;8.10;;
12947;SDS011;6539;49.476;8.484;2023-06-10T04:51:12;11.53;;;8.20;;
12947;SDS011;6539;49.476;8.484;2023-06-10T04:53:39;9.67;;;7.67;;
12947;SDS011;6539;49.476;8.484;2023-06-10T04:56:05;8.57;;;7.77;;
12947;SDS011;6539;49.476;8.484;2023-06-10T04:58:33;8.83;;;8.03;;
12947;SDS011;6539;49.476;8.484;2023-06-10T05:01:01;9.10;;;8.03;;
12947;SDS011;6539;49.476;8.484;2023-06-10T05:03:32;11.43;;;8.67;;
12947;SDS011;6539;49.476;8.484;2023-06-10T05:05:57;8.33;;;7.50;;
12947;SDS011;6539;49.476;8.484;2023-06-10T05:08:23;9.03;;;8.07;;
12947;SDS011;6539;49.476;8.484;2023-06-10T05:10:49;8.90;;;8.07;;
12947;SDS011;6539;49.476;8.484;2023-06-10T05:13:16;8.97;;;7.90;;
12947;SDS011;6539;49.476;8.484;2023-06-10T05:15:42;8.37;;;7.57;;
12947;SDS011;6539;49.476;8.484;2023-06-10T05:18:11;9.07;;;8.17;;
12947;SDS011;6539;49.476;8.484;2023-06-10T05:20:40;9.30;;;7.87;;
12947;SDS011;6539;49.476;8.484;2023-06-10T05:23:10;9.67;;;8.17;;
12947;SDS011;6539;49.476;8.484;2023-06-10T05:25:36;9.93;;;8.33;;
12947;SDS011;6539;49.476;8.484;2023-06-10T05:28:01;9.23;;;7.70;;
12947;SDS011;6539;49.476;8.484;2023-06-10T05:30:27;8.70;;;7.80;;
12947;SDS011;6539;49.476;8.484;2023-06-10T05:32:56;9.07;;;8.13;;
12947;SDS011;6539;49.476;8.484;2023-06-10T05:35:21;11.27;;;8.33;;
12947;SDS011;6539;49.476;8.484;2023-06-10T05:37:49;8.57;;;7.80;;
12947;SDS011;6539;49.476;8.484;2023-06-10T05:40:15;8.50;;;7.60;;
12947;SDS011;6539;49.476;8.484;2023-06-10T05:42:45;10.07;;;8.23;;
12947;SDS011;6539;49.476;8.484;2023-06-10T05:45:11;8.73;;;7.93;;
12947;SDS011;6539;49.476;8.484;2023-06-10T05:47:37;11.53;;;8.17;;
12947;SDS011;6539;49.476;8.484;2023-06-10T05:50:04;9.20;;;7.57;;
12947;SDS011;6539;49.476;8.484;2023-06-10T05:52:34;8.40;;;7.53;;
12947;SDS011;6539;49.476;8.484;2023-06-10T05:55:01;8.70;;;7.90;;
12947;SDS011;6539;49.476;8.484;2023-06-10T05:57:28;8.17;;;7.37;;
12947;SDS011;6539;49.476;8.484;2023-06-10T05:59:54;8.33;;;7.53;;
12947;SDS011;6539;49.476;8.484;2023-06-10T06:02:20;9.30;;;8.40;;
12947;SDS011;6539;49.476;8.484;2023-06-10T06:04:46;9.27;;;7.63;;
12947;SDS011;6539;49.476;8.484;2023-06-10T06:07:12;10.07;;;7.20;;
12947;SDS011;6539;49.476;8.484;2023-06-10T06:09:37;8.20;;;7.40;;
12947;SDS011;6539;49.476;8.484;2023-06-10T06:12:05;9.23;;;7.63;;
12947;SDS011;6539;49.476;8.484;2023-06-10T06:14:36;6.90;;;6.30;;
12947;SDS011;6539;49.476;8.484;2023-06-10T06:17:05;8.33;;;7.37;;
12947;SDS011;6539;49.476;8.484;2023-06-10T06:19:31;12.03;;;7.70;;
12947;SDS011;6539;49.476;8.484;2023-06-10T06:22:00;10.10;;;7.70;;
12947;SDS011;6539;49.476;8.484;2023-06-10T06:24:26;8.03;;;7.23;;
12947;SDS011;6539;49.476;8.484;2023-06-10T06:26:54;9.17;;;6.97;;
12947;SDS011;6539;49.476;8.484;2023-06-10T06:29:19;8.73;;;7.23;;
12947;SDS011;6539;49.476;8.484;2023-06-10T06:31:48;8.15;;;6.97;;
12947;SDS011;6539;49.476;8.484;2023-06-10T06:34:15;9.37;;;6.80;;
12947;SDS011;6539;49.476;8.484;2023-06-10T06:36:46;9.57;;;6.23;;
12947;SDS011;6539;49.476;8.484;2023-06-10T06:39:12;7.43;;;6.63;;
12947;SDS011;6539;49.476;8.484;2023-06-10T06:41:40;6.45;;;5.85;;
12947;SDS011;6539;49.476;8.484;2023-06-10T06:44:05;6.15;;;5.57;;
12947;SDS011;6539;49.476;8.484;2023-06-10T06:46:33;7.77;;;5.90;;
12947;SDS011;6539;49.476;8.484;2023-06-10T06:48:59;6.75;;;5.68;;
12947;SDS011;6539;49.476;8.484;2023-06-10T06:51:27;6.65;;;5.97;;
12947;SDS011;6539;49.476;8.484;2023-06-10T06:53:55;8.35;;;5.78;;
12947;SDS011;6539;49.476;8.484;2023-06-10T06:56:24;5.95;;;5.35;;
12947;SDS011;6539;49.476;8.484;2023-06-10T06:58:51;5.53;;;5.13;;
12947;SDS011;6539;49.476;8.484;2023-06-10T07:01:19;6.68;;;5.10;;
12947;SDS011;6539;49.476;8.484;2023-06-10T07:03:45;6.82;;;4.95;;
12947;SDS011;6539;49.476;8.484;2023-06-10T07:06:12;5.70;;;4.68;;
12947;SDS011;6539;49.476;8.484;2023-06-10T07:08:43;6.88;;;5.20;;
12947;SDS011;6539;49.476;8.484;2023-06-10T07:11:11;6.55;;;5.28;;
12947;SDS011;6539;49.476;8.484;2023-06-10T07:13:36;5.13;;;4.65;;
12947;SDS011;6539;49.476;8.484;2023-06-10T07:16:06;5.72;;;5.03;;
12947;SDS011;6539;49.476;8.484;2023-06-10T07:18:32;4.72;;;4.32;;
12947;SDS011;6539;49.476;8.484;2023-06-10T07:20:58;4.90;;;4.40;;
12947;SDS011;6539;49.476;8.484;2023-06-10T07:23:28;5.28;;;4.75;;
12947;SDS011;6539;49.476;8.484;2023-06-10T07:26:01;4.68;;;4.20;;
12947;SDS011;6539;49.476;8.484;2023-06-10T07:28:27;5.28;;;4.35;;
12947;SDS011;6539;49.476;8.484;2023-06-10T07:30:55;4.78;;;3.88;;
12947;SDS011;6539;49.476;8.484;2023-06-10T07:33:26;4.13;;;3.65;;
12947;SDS011;6539;49.476;8.484;2023-06-10T07:35:52;4.82;;;4.15;;
12947;SDS011;6539;49.476;8.484;2023-06-10T07:38:20;4.70;;;4.20;;
12947;SDS011;6539;49.476;8.484;2023-06-10T07:40:46;5.18;;;4.28;;
12947;SDS011;6539;49.476;8.484;2023-06-10T07:43:12;7.05;;;4.22;;
12947;SDS011;6539;49.476;8.484;2023-06-10T07:45:40;4.90;;;4.38;;
12947;SDS011;6539;49.476;8.484;2023-06-10T07:48:06;4.35;;;3.95;;
12947;SDS011;6539;49.476;8.484;2023-06-10T07:50:32;4.30;;;3.90;;
12947;SDS011;6539;49.476;8.484;2023-06-10T07:53:00;4.90;;;4.10;;
12947;SDS011;6539;49.476;8.484;2023-06-10T07:55:29;4.78;;;4.07;;
12947;SDS011;6539;49.476;8.484;2023-06-10T07:57:55;4.40;;;4.00;;
12947;SDS011;6539;49.476;8.484;2023-06-10T08:00:20;5.18;;;4.35;;
12947;SDS011;6539;49.476;8.484;2023-06-10T08:02:51;4.75;;;4.25;;
12947;SDS011;6539;49.476;8.484;2023-06-10T08:05:20;4.80;;;4.40;;
12947;SDS011;6539;49.476;8.484;2023-06-10T08:07:46;4.68;;;4.03;;
12947;SDS011;6539;49.476;8.484;2023-06-10T08:10:12;5.50;;;5.00;;
12947;SDS011;6539;49.476;8.484;2023-06-10T08:12:40;4.80;;;4.30;;
12947;SDS011;6539;49.476;8.484;2023-06-10T08:15:08;5.82;;;4.60;;
12947;SDS011;6539;49.476;8.484;2023-06-10T08:17:37;5.68;;;4.65;;
12947;SDS011;6539;49.476;8.484;2023-06-10T08:20:06;7.13;;;5.03;;
12947;SDS011;6539;49.476;8.484;2023-06-10T08:22:32;5.15;;;4.65;;
12947;SDS011;6539;49.476;8.484;2023-06-10T08:25:00;8.60;;;7.65;;
12947;SDS011;6539;49.476;8.484;2023-06-10T08:27:25;5.40;;;4.88;;
12947;SDS011;6539;49.476;8.484;2023-06-10T08:29:51;5.15;;;4.57;;
12947;SDS011;6539;49.476;8.484;2023-06-10T08:32:17;5.78;;;5.22;;
12947;SDS011;6539;49.476;8.484;2023-06-10T08:34:43;5.18;;;4.75;;
12947;SDS011;6539;49.476;8.484;2023-06-10T08:37:13;6.25;;;5.35;;
12947;SDS011;6539;49.476;8.484;2023-06-10T08:39:39;5.22;;;4.72;;
12947;SDS011;6539;49.476;8.484;2023-06-10T08:42:18;5.07;;;4.68;;
12947;SDS011;6539;49.476;8.484;2023-06-10T08:45:07;5.20;;;4.80;;
12947;SDS011;6539;49.476;8.484;2023-06-10T08:47:44;5.90;;;5.38;;
12947;SDS011;6539;49.476;8.484;2023-06-10T08:50:11;6.10;;;5.13;;
12947;SDS011;6539;49.476;8.484;2023-06-10T08:52:42;5.70;;;5.10;;
12947;SDS011;6539;49.476;8.484;2023-06-10T08:55:18;5.25;;;4.75;;
12947;SDS011;6539;49.476;8.484;2023-06-10T08:57:51;8.32;;;7.63;;
12947;SDS011;6539;49.476;8.484;2023-06-10T09:00:19;5.97;;;4.70;;
12947;SDS011;6539;49.476;8.484;2023-06-10T09:02:48;5.07;;;4.53;;
12947;SDS011;6539;49.476;8.484;2023-06-10T09:05:17;4.70;;;4.30;;
12947;SDS011;6539;49.476;8.484;2023-06-10T09:07:45;5.63;;;4.50;;
12947;SDS011;6539;49.476;8.484;2023-06-10T09:10:13;5.28;;;4.78;;
12947;SDS011;6539;49.476;8.484;2023-06-10T09:12:39;4.97;;;4.50;;
12947;SDS011;6539;49.476;8.484;2023-06-10T09:15:05;6.10;;;4.80;;
12947;SDS011;6539;49.476;8.484;2023-06-10T09:17:32;6.22;;;5.47;;
12947;SDS011;6539;49.476;8.484;2023-06-10T09:20:01;8.27;;;5.45;;
12947;SDS011;6539;49.476;8.484;2023-06-10T09:22:27;7.20;;;5.97;;
12947;SDS011;6539;49.476;8.484;2023-06-10T09:25:07;6.95;;;5.88;;
12947;SDS011;6539;49.476;8.484;2023-06-10T09:27:49;6.70;;;6.10;;
12947;SDS011;6539;49.476;8.484;2023-06-10T09:30:24;6.93;;;6.22;;
12947;SDS011;6539;49.476;8.484;2023-06-10T09:33:01;7.10;;;5.50;;
12947;SDS011;6539;49.476;8.484;2023-06-10T09:35:37;6.00;;;5.50;;
12947;SDS011;6539;49.476;8.484;2023-06-10T09:38:15;8.77;;;5.32;;
12947;SDS011;6539;49.476;8.484;2023-06-10T09:40:53;7.25;;;6.15;;
12947;SDS011;6539;49.476;8.484;2023-06-10T09:43:21;8.75;;;5.95;;
12947;SDS011;6539;49.476;8.484;2023-06-10T09:45:50;7.22;;;5.97;;
12947;SDS011;6539;49.476;8.484;2023-06-10T09:48:19;6.90;;;6.18;;
12947;SDS011;6539;49.476;8.484;2023-06-10T09:50:45;7.05;;;6.35;;
12947;SDS011;6539;49.476;8.484;2023-06-10T09:53:11;8.70;;;6.43;;
12947;SDS011;6539;49.476;8.484;2023-06-10T09:55:41;8.95;;;6.05;;
12947;SDS011;6539;49.476;8.484;2023-06-10T09:58:07;6.55;;;6.03;;
12947;SDS011;6539;49.476;8.484;2023-06-10T10:00:33;7.20;;;6.15;;
12947;SDS011;6539;49.476;8.484;2023-06-10T10:03:00;7.25;;;6.07;;
12947;SDS011;6539;49.476;8.484;2023-06-10T10:05:26;6.10;;;5.55;;
12947;SDS011;6539;49.476;8.484;2023-06-10T10:07:52;6.60;;;6.00;;
12947;SDS011;6539;49.476;8.484;2023-06-10T10:10:21;6.10;;;5.55;;
12947;SDS011;6539;49.476;8.484;2023-06-10T10:12:54;7.25;;;6.55;;
12947;SDS011;6539;49.476;8.484;2023-06-10T10:15:21;7.22;;;6.53;;
12947;SDS011;6539;49.476;8.484;2023-06-10T10:20:22;6.68;;;6.07;;
12947;SDS011;6539;49.476;8.484;2023-06-10T10:22:56;6.20;;;5.70;;
12947;SDS011;6539;49.476;8.484;2023-06-10T10:25:25;7.70;;;5.80;;
12947;SDS011;6539;49.476;8.484;2023-06-10T10:30:37;5.88;;;5.28;;
12947;SDS011;6539;49.476;8.484;2023-06-10T10:33:12;5.03;;;4.30;;
12947;SDS011;6539;49.476;8.484;2023-06-10T10:35:45;4.60;;;4.20;;
12947;SDS011;6539;49.476;8.484;2023-06-10T10:38:16;6.57;;;4.57;;
12947;SDS011;6539;49.476;8.484;2023-06-10T10:40:42;4.47;;;4.07;;
12947;SDS011;6539;49.476;8.484;2023-06-10T10:43:16;4.65;;;3.85;;
12947;SDS011;6539;49.476;8.484;2023-06-10T10:45:45;4.95;;;4.18;;
12947;SDS011;6539;49.476;8.484;2023-06-10T10:48:22;4.65;;;4.25;;
12947;SDS011;6539;49.476;8.484;2023-06-10T10:50:58;7.10;;;4.30;;
12947;SDS011;6539;49.476;8.484;2023-06-10T10:53:24;5.10;;;4.03;;
12947;SDS011;6539;49.476;8.484;2023-06-10T10:56:26;4.30;;;3.90;;
12947;SDS011;6539;49.476;8.484;2023-06-10T10:59:04;5.68;;;4.18;;
12947;SDS011;6539;49.476;8.484;2023-06-10T11:01:43;4.97;;;4.47;;
12947;SDS011;6539;49.476;8.484;2023-06-10T11:04:14;4.82;;;4.43;;
12947;SDS011;6539;49.476;8.484;2023-06-10T11:06:53;4.60;;;4.18;;
12947;SDS011;6539;49.476;8.484;2023-06-10T11:09:31;4.35;;;3.80;;
12947;SDS011;6539;49.476;8.484;2023-06-10T11:11:57;4.93;;;4.50;;
12947;SDS011;6539;49.476;8.484;2023-06-10T11:14:30;4.22;;;3.72;;
12947;SDS011;6539;49.476;8.484;2023-06-10T11:17:03;4.22;;;3.92;;
12947;SDS011;6539;49.476;8.484;2023-06-10T11:19:46;4.07;;;3.67;;
12947;SDS011;6539;49.476;8.484;2023-06-10T11:22:16;5.60;;;3.90;;
12947;SDS011;6539;49.476;8.484;2023-06-10T11:24:47;4.20;;;3.78;;
12947;SDS011;6539;49.476;8.484;2023-06-10T11:29:56;5.75;;;4.07;;
12947;SDS011;6539;49.476;8.484;2023-06-10T11:32:32;6.05;;;5.45;;
12947;SDS011;6539;49.476;8.484;2023-06-10T11:35:00;5.28;;;4.30;;
12947;SDS011;6539;49.476;8.484;2023-06-10T11:37:29;9.18;;;8.38;;
12947;SDS011;6539;49.476;8.484;2023-06-10T11:39:57;12.35;;;7.85;;
12947;SDS011;6539;49.476;8.484;2023-06-10T11:42:24;5.05;;;4.30;;
12947;SDS011;6539;49.476;8.484;2023-06-10T11:44:50;4.80;;;4.20;;
12947;SDS011;6539;49.476;8.484;2023-06-10T11:47:19;4.55;;;3.88;;
12947;SDS011;6539;49.476;8.484;2023-06-10T11:49:46;5.72;;;3.97;;
12947;SDS011;6539;49.476;8.484;2023-06-10T11:52:31;4.88;;;4.30;;
12947;SDS011;6539;49.476;8.484;2023-06-10T11:55:06;7.00;;;4.50;;
12947;SDS011;6539;49.476;8.484;2023-06-10T11:57:36;4.50;;;3.85;;
12947;SDS011;6539;49.476;8.484;2023-06-10T12:00:07;9.45;;;8.63;;
12947;SDS011;6539;49.476;8.484;2023-06-10T12:02:33;4.93;;;4.25;;
12947;SDS011;6539;49.476;8.484;2023-06-10T12:05:12;5.63;;;4.15;;
12947;SDS011;6539;49.476;8.484;2023-06-10T12:07:38;4.20;;;3.90;;
12947;SDS011;6539;49.476;8.484;2023-06-10T12:10:04;5.90;;;4.60;;
12947;SDS011;6539;49.476;8.484;2023-06-10T12:12:36;3.80;;;3.50;;
12947;SDS011;6539;49.476;8.484;2023-06-10T12:15:02;4.28;;;3.80;;
12947;SDS011;6539;49.476;8.484;2023-06-10T12:19:56;5.05;;;4.07;;
12947;SDS011;6539;49.476;8.484;2023-06-10T12:22:23;4.97;;;3.67;;
12947;SDS011;6539;49.476;8.484;2023-06-10T12:24:59;4.30;;;3.88;;
12947;SDS011;6539;49.476;8.484;2023-06-10T12:27:28;6.57;;;4.03;;
12947;SDS011;6539;49.476;8.484;2023-06-10T12:29:59;4.15;;;3.70;;
12947;SDS011;6539;49.476;8.484;2023-06-10T12:32:43;5.93;;;4.10;;
12947;SDS011;6539;49.476;8.484;2023-06-10T12:35:11;4.38;;;4.05;;
12947;SDS011;6539;49.476;8.484;2023-06-10T12:40:47;5.38;;;4.45;;
12947;SDS011;6539;49.476;8.484;2023-06-10T12:43:13;5.50;;;3.70;;
12947;SDS011;6539;49.476;8.484;2023-06-10T12:45:47;6.68;;;4.47;;
12947;SDS011;6539;49.476;8.484;2023-06-10T12:48:19;6.78;;;6.07;;
12947;SDS011;6539;49.476;8.484;2023-06-10T12:50:53;5.00;;;4.60;;
12947;SDS011;6539;49.476;8.484;2023-06-10T12:53:24;6.90;;;6.20;;
12947;SDS011;6539;49.476;8.484;2023-06-10T12:55:55;6.85;;;5.75;;
12947;SDS011;6539;49.476;8.484;2023-06-10T12:58:25;4.32;;;3.90;;
12947;SDS011;6539;49.476;8.484;2023-06-10T13:00:51;4.78;;;4.28;;
12947;SDS011;6539;49.476;8.484;2023-06-10T13:03:18;7.15;;;4.45;;
12947;SDS011;6539;49.476;8.484;2023-06-10T13:05:43;4.18;;;3.70;;
12947;SDS011;6539;49.476;8.484;2023-06-10T13:08:11;4.57;;;4.18;;
12947;SDS011;6539;49.476;8.484;2023-06-10T13:10:37;5.53;;;4.07;;
12947;SDS011;6539;49.476;8.484;2023-06-10T13:13:05;4.38;;;3.97;;
12947;SDS011;6539;49.476;8.484;2023-06-10T13:15:36;4.28;;;3.88;;
12947;SDS011;6539;49.476;8.484;2023-06-10T13:18:05;5.32;;;4.38;;
12947;SDS011;6539;49.476;8.484;2023-06-10T13:20:30;5.90;;;4.22;;
12947;SDS011;6539;49.476;8.484;2023-06-10T13:22:58;4.97;;;4.50;;
12947;SDS011;6539;49.476;8.484;2023-06-10T13:25:29;3.95;;;3.47;;
12947;SDS011;6539;49.476;8.484;2023-06-10T13:27:57;4.60;;;4.20;;
12947;SDS011;6539;49.476;8.484;2023-06-10T13:30:23;5.25;;;4.55;;
12947;SDS011;6539;49.476;8.484;2023-06-10T13:32:48;6.63;;;3.80;;
12947;SDS011;6539;49.476;8.484;2023-06-10T13:35:14;4.07;;;3.78;;
12947;SDS011;6539;49.476;8.484;2023-06-10T13:37:40;4.68;;;4.28;;
12947;SDS011;6539;49.476;8.484;2023-06-10T13:40:06;5.05;;;4.25;;
12947;SDS011;6539;49.476;8.484;2023-06-10T13:42:32;4.97;;;4.00;;
12947;SDS011;6539;49.476;8.484;2023-06-10T13:45:03;4.30;;;3.92;;
12947;SDS011;6539;49.476;8.484;2023-06-10T13:47:30;7.63;;;4.47;;
12947;SDS011;6539;49.476;8.484;2023-06-10T13:49:56;4.43;;;4.00;;
12947;SDS011;6539;49.476;8.484;2023-06-10T13:52:25;4.45;;;4.07;;
12947;SDS011;6539;49.476;8.484;2023-06-10T13:54:55;5.38;;;4.15;;
12947;SDS011;6539;49.476;8.484;2023-06-10T13:57:21;4.50;;;4.10;;
12947;SDS011;6539;49.476;8.484;2023-06-10T13:59:50;5.65;;;4.50;;
12947;SDS011;6539;49.476;8.484;2023-06-10T14:02:19;5.55;;;4.40;;
12947;SDS011;6539;49.476;8.484;2023-06-10T14:04:45;4.72;;;4.32;;
12947;SDS011;6539;49.476;8.484;2023-06-10T14:07:12;4.70;;;4.30;;
12947;SDS011;6539;49.476;8.484;2023-06-10T14:09:43;4.82;;;4.43;;
12947;SDS011;6539;49.476;8.484;2023-06-10T14:12:12;4.57;;;4.18;;
12947;SDS011;6539;49.476;8.484;2023-06-10T14:14:38;5.45;;;3.85;;
12947;SDS011;6539;49.476;8.484;2023-06-10T14:17:03;4.47;;;4.00;;
12947;SDS011;6539;49.476;8.484;2023-06-10T14:19:30;4.55;;;4.00;;
12947;SDS011;6539;49.476;8.484;2023-06-10T14:22:00;4.72;;;4.32;;
12947;SDS011;6539;49.476;8.484;2023-06-10T14:24:28;5.63;;;3.78;;
12947;SDS011;6539;49.476;8.484;2023-06-10T14:26:56;5.55;;;4.03;;
12947;SDS011;6539;49.476;8.484;2023-06-10T14:29:24;4.32;;;3.92;;
12947;SDS011;6539;49.476;8.484;2023-06-10T14:31:53;4.22;;;3.83;;
12947;SDS011;6539;49.476;8.484;2023-06-10T14:34:20;5.85;;;4.43;;
12947;SDS011;6539;49.476;8.484;2023-06-10T14:36:48;6.57;;;5.80;;
12947;SDS011;6539;49.476;8.484;2023-06-10T14:39:14;4.55;;;4.07;;
12947;SDS011;6539;49.476;8.484;2023-06-10T14:41:40;5.93;;;4.50;;
12947;SDS011;6539;49.476;8.484;2023-06-10T14:44:05;4.40;;;3.97;;
12947;SDS011;6539;49.476;8.484;2023-06-10T14:46:33;4.18;;;3.85;;
12947;SDS011;6539;49.476;8.484;2023-06-10T14:48:59;4.63;;;3.83;;
12947;SDS011;6539;49.476;8.484;2023-06-10T14:51:31;8.60;;;7.03;;
12947;SDS011;6539;49.476;8.484;2023-06-10T14:53:59;11.48;;;9.07;;
12947;SDS011;6539;49.476;8.484;2023-06-10T14:56:25;4.45;;;4.00;;
12947;SDS011;6539;49.476;8.484;2023-06-10T14:58:54;4.00;;;3.65;;
12947;SDS011;6539;49.476;8.484;2023-06-10T15:01:20;4.10;;;3.67;;
12947;SDS011;6539;49.476;8.484;2023-06-10T15:03:48;5.53;;;5.03;;
12947;SDS011;6539;49.476;8.484;2023-06-10T15:06:16;7.07;;;5.80;;
12947;SDS011;6539;49.476;8.484;2023-06-10T15:08:45;5.72;;;4.45;;
12947;SDS011;6539;49.476;8.484;2023-06-10T15:11:13;4.90;;;4.43;;
12947;SDS011;6539;49.476;8.484;2023-06-10T15:13:42;5.25;;;4.13;;
12947;SDS011;6539;49.476;8.484;2023-06-10T15:16:08;4.47;;;3.85;;
12947;SDS011;6539;49.476;8.484;2023-06-10T15:18:36;4.43;;;4.03;;
12947;SDS011;6539;49.476;8.484;2023-06-10T15:21:02;4.78;;;4.28;;
12947;SDS011;6539;49.476;8.484;2023-06-10T15:23:28;3.90;;;3.47;;
12947;SDS011;6539;49.476;8.484;2023-06-10T15:25:56;4.50;;;4.10;;